Disclaimer

Please do not use the information listed here in-flight or in-navigation, as they are not provided to us by the airports but are provided by volunteers, so they might be outdated.

Search


Regions


Airport information page

No radio frequency information is available.

Airport informations:
Latitude: 56° 05' 24.97" N
Longitude: 047° 20' 50.10" E
Elevation: 560 feet - 171 meters
Operating hours: Remarks
Operating agency: Civil government, landing fees and diplomatic clearance may be required
Timezone: UTC+3(+4DT) - Last Sunday in March to last Sunday in October
Fuel: N/A

Runway information:
06/24 - 8242 x 161 feet< - >2512 x 49 meters

Recent METARs:
UWKS 211100Z 32006MPS 8000 -SHSN BLSN BKN013CB M01/M02 Q1008 R24/550245 TEMPO 0600 +SHSN BLSN VV003 RMK QFE742
UWKS 211130Z 33007MPS 9999 DRSN BKN013CB M01/M03 Q1008 R24/550245 TEMPO 0600 +SHSN BLSN VV003 RMK QFE742
UWKS 211200Z 32005MPS 9999 SCT016CB M01/M03 Q1008 R24/550245 TEMPO 1000 SHSN BLSN BKN007CB RMK QFE742

Airport on the map: